sensor_id;sensor_type;location;lat;lon;timestamp;pressure;altitude;pressure_sealevel;temperature;humidity
5146;BME280;2591;48.144;15.152;2023-02-18T00:01:29;76076.19;;;-144.65;84.08
5146;BME280;2591;48.144;15.152;2023-02-18T00:03:57;76086.38;;;-144.65;84.26
5146;BME280;2591;48.144;15.152;2023-02-18T00:06:27;76070.06;;;-144.65;83.80
5146;BME280;2591;48.144;15.152;2023-02-18T00:08:55;76074.16;;;-144.65;83.62
5146;BME280;2591;48.144;15.152;2023-02-18T00:11:24;76063.94;;;-144.65;83.67
5146;BME280;2591;48.144;15.152;2023-02-18T00:13:57;76078.22;;;-144.65;83.80
5146;BME280;2591;48.144;15.152;2023-02-18T00:16:26;76074.16;;;-144.65;83.39
5146;BME280;2591;48.144;15.152;2023-02-18T00:18:55;76053.75;;;-144.65;82.71
5146;BME280;2591;48.144;15.152;2023-02-18T00:21:23;76070.06;;;-144.65;83.08
5146;BME280;2591;48.144;15.152;2023-02-18T00:23:51;76068.03;;;-144.65;83.00
5146;BME280;2591;48.144;15.152;2023-02-18T00:26:19;76053.75;;;-144.65;82.29
5146;BME280;2591;48.144;15.152;2023-02-18T00:28:47;76066.00;;;-144.65;82.74
5146;BME280;2591;48.144;15.152;2023-02-18T00:31:20;76059.88;;;-144.65;82.28
5146;BME280;2591;48.144;15.152;2023-02-18T00:33:48;76053.75;;;-144.65;82.14
5146;BME280;2591;48.144;15.152;2023-02-18T00:36:17;76045.59;;;-144.65;81.60
5146;BME280;2591;48.144;15.152;2023-02-18T00:38:46;76043.56;;;-144.65;81.22
5146;BME280;2591;48.144;15.152;2023-02-18T00:41:14;76061.91;;;-144.65;81.84
5146;BME280;2591;48.144;15.152;2023-02-18T00:43:43;76066.00;;;-144.65;82.09
5146;BME280;2591;48.144;15.152;2023-02-18T00:46:11;76061.91;;;-144.65;81.91
5146;BME280;2591;48.144;15.152;2023-02-18T00:48:41;76070.06;;;-144.65;82.26
5146;BME280;2591;48.144;15.152;2023-02-18T00:51:10;76074.16;;;-144.65;82.37
5146;BME280;2591;48.144;15.152;2023-02-18T00:53:39;76076.19;;;-144.65;82.80
5146;BME280;2591;48.144;15.152;2023-02-18T00:56:07;76082.28;;;-144.65;82.76
5146;BME280;2591;48.144;15.152;2023-02-18T00:58:36;76066.00;;;-144.65;83.16
5146;BME280;2591;48.144;15.152;2023-02-18T01:01:04;76070.06;;;-144.65;82.73
5146;BME280;2591;48.144;15.152;2023-02-18T01:03:33;76070.06;;;-144.65;82.60
5146;BME280;2591;48.144;15.152;2023-02-18T01:06:03;76074.16;;;-144.65;82.81
5146;BME280;2591;48.144;15.152;2023-02-18T01:08:32;76063.94;;;-144.65;82.52
5146;BME280;2591;48.144;15.152;2023-02-18T01:11:01;76053.75;;;-144.65;82.04
5146;BME280;2591;48.144;15.152;2023-02-18T01:13:29;76057.84;;;-144.65;82.22
5146;BME280;2591;48.144;15.152;2023-02-18T01:15:57;76041.53;;;-144.65;81.29
5146;BME280;2591;48.144;15.152;2023-02-18T01:18:26;76008.91;;;-144.65;80.22
5146;BME280;2591;48.144;15.152;2023-02-18T01:20:54;76017.06;;;-144.65;80.57
5146;BME280;2591;48.144;15.152;2023-02-18T01:23:23;76017.06;;;-144.65;80.50
5146;BME280;2591;48.144;15.152;2023-02-18T01:25:51;76012.97;;;-144.65;80.19
5146;BME280;2591;48.144;15.152;2023-02-18T01:28:19;76017.06;;;-144.65;80.20
5146;BME280;2591;48.144;15.152;2023-02-18T01:30:51;76017.06;;;-144.65;80.53
5146;BME280;2591;48.144;15.152;2023-02-18T01:33:20;76012.97;;;-144.65;80.49
5146;BME280;2591;48.144;15.152;2023-02-18T01:35:47;76008.91;;;-144.65;80.32
5146;BME280;2591;48.144;15.152;2023-02-18T01:38:15;76017.06;;;-144.65;80.55
5146;BME280;2591;48.144;15.152;2023-02-18T01:40:48;76004.81;;;-144.65;80.63
5146;BME280;2591;48.144;15.152;2023-02-18T01:43:17;76004.81;;;-144.65;80.48
5146;BME280;2591;48.144;15.152;2023-02-18T01:48:35;75992.59;;;-144.65;80.44
5146;BME280;2591;48.144;15.152;2023-02-18T01:51:09;76008.91;;;-144.65;80.60
5146;BME280;2591;48.144;15.152;2023-02-18T01:53:43;76004.81;;;-144.65;81.00
5146;BME280;2591;48.144;15.152;2023-02-18T01:56:18;76006.88;;;-144.65;80.81
5146;BME280;2591;48.144;15.152;2023-02-18T01:58:47;76017.06;;;-144.65;81.37
5146;BME280;2591;48.144;15.152;2023-02-18T02:01:16;76002.78;;;-144.65;81.20
5146;BME280;2591;48.144;15.152;2023-02-18T02:03:44;76004.81;;;-144.65;81.07
5146;BME280;2591;48.144;15.152;2023-02-18T02:06:18;76000.75;;;-144.65;81.22
5146;BME280;2591;48.144;15.152;2023-02-18T02:08:48;76008.91;;;-144.65;81.72
5146;BME280;2591;48.144;15.152;2023-02-18T02:11:25;76012.97;;;-144.65;81.78
5146;BME280;2591;48.144;15.152;2023-02-18T02:14:10;76019.09;;;-144.65;81.80
5146;BME280;2591;48.144;15.152;2023-02-18T02:16:49;76010.94;;;-144.65;81.35
5146;BME280;2591;48.144;15.152;2023-02-18T02:22:45;76012.97;;;-144.65;81.68
5146;BME280;2591;48.144;15.152;2023-02-18T02:25:34;76015.03;;;-144.65;81.73
5146;BME280;2591;48.144;15.152;2023-02-18T02:28:31;75988.50;;;-144.65;81.33
5146;BME280;2591;48.144;15.152;2023-02-18T02:31:24;75988.50;;;-144.65;80.66
5146;BME280;2591;48.144;15.152;2023-02-18T02:34:33;76000.75;;;-144.65;80.99
5146;BME280;2591;48.144;15.152;2023-02-18T02:37:09;75992.59;;;-144.65;80.49
5146;BME280;2591;48.144;15.152;2023-02-18T02:39:45;76002.78;;;-144.65;80.81
5146;BME280;2591;48.144;15.152;2023-02-18T02:42:25;75996.66;;;-144.65;80.49
5146;BME280;2591;48.144;15.152;2023-02-18T02:44:56;76000.75;;;-144.65;80.68
5146;BME280;2591;48.144;15.152;2023-02-18T02:47:32;75998.72;;;-144.65;80.67
5146;BME280;2591;48.144;15.152;2023-02-18T02:50:08;76004.81;;;-144.65;80.47
5146;BME280;2591;48.144;15.152;2023-02-18T02:52:40;75986.47;;;-144.65;80.19
5146;BME280;2591;48.144;15.152;2023-02-18T02:55:11;75998.72;;;-144.65;79.99
5146;BME280;2591;48.144;15.152;2023-02-18T02:57:48;76012.97;;;-144.65;80.06
5146;BME280;2591;48.144;15.152;2023-02-18T03:00:19;76012.97;;;-144.65;80.37
5146;BME280;2591;48.144;15.152;2023-02-18T03:06:03;76015.03;;;-144.65;80.02
5146;BME280;2591;48.144;15.152;2023-02-18T03:08:40;76017.06;;;-144.65;80.50
5146;BME280;2591;48.144;15.152;2023-02-18T03:11:14;76035.41;;;-144.65;80.79
5146;BME280;2591;48.144;15.152;2023-02-18T03:13:55;76037.44;;;-144.65;81.51
5146;BME280;2591;48.144;15.152;2023-02-18T03:16:27;76049.69;;;-144.65;81.67
5146;BME280;2591;48.144;15.152;2023-02-18T03:19:04;76049.69;;;-144.65;82.17
5146;BME280;2591;48.144;15.152;2023-02-18T03:21:39;76051.72;;;-144.65;82.71
5146;BME280;2591;48.144;15.152;2023-02-18T03:24:12;76049.69;;;-144.65;82.53
5146;BME280;2591;48.144;15.152;2023-02-18T03:26:44;76049.69;;;-144.65;82.58
5146;BME280;2591;48.144;15.152;2023-02-18T03:29:14;76051.72;;;-144.65;82.39
5146;BME280;2591;48.144;15.152;2023-02-18T03:31:46;76053.75;;;-144.65;82.61
5146;BME280;2591;48.144;15.152;2023-02-18T03:34:19;76061.91;;;-144.65;82.66
5146;BME280;2591;48.144;15.152;2023-02-18T03:36:51;76055.78;;;-144.65;82.64
5146;BME280;2591;48.144;15.152;2023-02-18T03:39:22;76055.78;;;-144.65;83.10
5146;BME280;2591;48.144;15.152;2023-02-18T03:41:52;76057.84;;;-144.65;82.85
5146;BME280;2591;48.144;15.152;2023-02-18T03:44:20;76063.94;;;-144.65;83.06
5146;BME280;2591;48.144;15.152;2023-02-18T03:46:51;76070.06;;;-144.65;83.16
5146;BME280;2591;48.144;15.152;2023-02-18T03:49:19;76055.78;;;-144.65;82.95
5146;BME280;2591;48.144;15.152;2023-02-18T03:51:47;76053.75;;;-144.65;82.74
5146;BME280;2591;48.144;15.152;2023-02-18T03:54:16;76049.69;;;-144.65;82.35
5146;BME280;2591;48.144;15.152;2023-02-18T03:56:44;76066.00;;;-144.65;83.05
5146;BME280;2591;48.144;15.152;2023-02-18T03:59:12;76047.63;;;-144.65;82.32
5146;BME280;2591;48.144;15.152;2023-02-18T04:01:40;76066.00;;;-144.65;82.60
5146;BME280;2591;48.144;15.152;2023-02-18T04:04:08;76070.06;;;-144.65;83.22
5146;BME280;2591;48.144;15.152;2023-02-18T04:06:36;76086.38;;;-144.65;83.78
5146;BME280;2591;48.144;15.152;2023-02-18T04:09:03;76078.22;;;-144.65;83.75
5146;BME280;2591;48.144;15.152;2023-02-18T04:11:37;76080.25;;;-144.65;84.06
5146;BME280;2591;48.144;15.152;2023-02-18T04:14:05;76074.16;;;-144.65;84.50
5146;BME280;2591;48.144;15.152;2023-02-18T04:16:33;76082.28;;;-144.65;84.61
5146;BME280;2591;48.144;15.152;2023-02-18T04:19:01;76090.44;;;-144.65;85.17
5146;BME280;2591;48.144;15.152;2023-02-18T04:21:29;76078.22;;;-144.65;85.56
5146;BME280;2591;48.144;15.152;2023-02-18T04:23:57;76078.22;;;-144.65;85.64
5146;BME280;2591;48.144;15.152;2023-02-18T04:26:24;76070.06;;;-144.65;85.80
5146;BME280;2591;48.144;15.152;2023-02-18T04:28:54;76061.91;;;-144.65;86.13
5146;BME280;2591;48.144;15.152;2023-02-18T04:31:22;76074.16;;;-144.65;86.46
5146;BME280;2591;48.144;15.152;2023-02-18T04:33:50;76070.06;;;-144.65;87.23
5146;BME280;2591;48.144;15.152;2023-02-18T04:36:17;76059.88;;;-144.65;87.35
5146;BME280;2591;48.144;15.152;2023-02-18T04:38:45;76078.22;;;-144.65;87.81
5146;BME280;2591;48.144;15.152;2023-02-18T04:41:13;76086.38;;;-144.65;88.52
5146;BME280;2591;48.144;15.152;2023-02-18T04:43:41;76082.28;;;-144.65;88.42
5146;BME280;2591;48.144;15.152;2023-02-18T04:46:10;76070.06;;;-144.65;88.16
5146;BME280;2591;48.144;15.152;2023-02-18T04:48:38;76074.16;;;-144.65;87.86
5146;BME280;2591;48.144;15.152;2023-02-18T04:51:06;76078.22;;;-144.65;88.64
5146;BME280;2591;48.144;15.152;2023-02-18T04:53:34;76078.22;;;-144.65;88.20
5146;BME280;2591;48.144;15.152;2023-02-18T04:56:02;76066.00;;;-144.65;88.16
5146;BME280;2591;48.144;15.152;2023-02-18T04:58:30;76086.38;;;-144.65;88.39
5146;BME280;2591;48.144;15.152;2023-02-18T05:00:59;76082.28;;;-144.65;88.46
5146;BME280;2591;48.144;15.152;2023-02-18T05:03:29;76070.06;;;-144.65;88.56
5146;BME280;2591;48.144;15.152;2023-02-18T05:05:57;76061.91;;;-144.65;88.20
5146;BME280;2591;48.144;15.152;2023-02-18T05:08:24;76051.72;;;-144.65;86.97
5146;BME280;2591;48.144;15.152;2023-02-18T05:10:52;76070.06;;;-144.65;87.47
5146;BME280;2591;48.144;15.152;2023-02-18T05:13:20;76078.22;;;-144.65;87.53
5146;BME280;2591;48.144;15.152;2023-02-18T05:15:49;76070.06;;;-144.65;87.14
5146;BME280;2591;48.144;15.152;2023-02-18T05:18:16;76057.84;;;-144.65;86.62
5146;BME280;2591;48.144;15.152;2023-02-18T05:20:46;76055.78;;;-144.65;85.93
5146;BME280;2591;48.144;15.152;2023-02-18T05:23:13;76057.84;;;-144.65;86.24
5146;BME280;2591;48.144;15.152;2023-02-18T05:25:41;76061.91;;;-144.65;86.17
5146;BME280;2591;48.144;15.152;2023-02-18T05:28:09;76045.59;;;-144.65;85.19
5146;BME280;2591;48.144;15.152;2023-02-18T05:30:37;76063.94;;;-144.65;86.00
5146;BME280;2591;48.144;15.152;2023-02-18T05:33:05;76057.84;;;-144.65;85.71
5146;BME280;2591;48.144;15.152;2023-02-18T05:35:35;76053.75;;;-144.65;86.00
5146;BME280;2591;48.144;15.152;2023-02-18T05:38:05;76066.00;;;-144.65;86.37
5146;BME280;2591;48.144;15.152;2023-02-18T05:40:33;76072.09;;;-144.65;86.75
5146;BME280;2591;48.144;15.152;2023-02-18T05:43:00;76074.16;;;-144.65;86.71
5146;BME280;2591;48.144;15.152;2023-02-18T05:45:28;76074.16;;;-144.65;86.78
5146;BME280;2591;48.144;15.152;2023-02-18T05:47:56;76063.94;;;-144.65;86.77
5146;BME280;2591;48.144;15.152;2023-02-18T05:50:24;76074.16;;;-144.65;86.55
5146;BME280;2591;48.144;15.152;2023-02-18T05:52:51;76080.25;;;-144.65;86.92
5146;BME280;2591;48.144;15.152;2023-02-18T05:55:21;76084.34;;;-144.65;87.63
5146;BME280;2591;48.144;15.152;2023-02-18T05:57:49;76086.38;;;-144.65;88.32
5146;BME280;2591;48.144;15.152;2023-02-18T06:00:18;76098.59;;;-144.65;88.51
5146;BME280;2591;48.144;15.152;2023-02-18T06:02:47;76119.00;;;-144.65;89.76
5146;BME280;2591;48.144;15.152;2023-02-18T06:05:15;76114.91;;;-144.65;90.46
5146;BME280;2591;48.144;15.152;2023-02-18T06:07:42;76141.41;;;-144.65;91.70
5146;BME280;2591;48.144;15.152;2023-02-18T06:10:11;76131.22;;;-144.65;91.94
5146;BME280;2591;48.144;15.152;2023-02-18T06:12:40;76127.16;;;-144.65;92.25
5146;BME280;2591;48.144;15.152;2023-02-18T06:15:08;76143.47;;;-144.65;92.80
5146;BME280;2591;48.144;15.152;2023-02-18T06:17:36;76143.47;;;-144.65;93.33
5146;BME280;2591;48.144;15.152;2023-02-18T06:20:04;76139.38;;;-144.65;93.28
5146;BME280;2591;48.144;15.152;2023-02-18T06:22:32;76143.47;;;-144.65;93.73
5146;BME280;2591;48.144;15.152;2023-02-18T06:25:00;76153.66;;;-144.65;94.41
5146;BME280;2591;48.144;15.152;2023-02-18T06:27:28;76139.38;;;-144.65;94.78
5146;BME280;2591;48.144;15.152;2023-02-18T06:29:57;76147.53;;;-144.65;94.36
5146;BME280;2591;48.144;15.152;2023-02-18T06:32:25;76157.72;;;-144.65;94.78
5146;BME280;2591;48.144;15.152;2023-02-18T06:34:53;76157.72;;;-144.65;94.96
5146;BME280;2591;48.144;15.152;2023-02-18T06:37:21;76143.47;;;-144.65;94.72
5146;BME280;2591;48.144;15.152;2023-02-18T06:39:48;76141.41;;;-144.65;93.60
5146;BME280;2591;48.144;15.152;2023-02-18T06:42:16;76131.22;;;-144.65;93.69
5146;BME280;2591;48.144;15.152;2023-02-18T06:44:44;76141.41;;;-144.65;93.37
5146;BME280;2591;48.144;15.152;2023-02-18T06:47:13;76139.38;;;-144.65;93.13
5146;BME280;2591;48.144;15.152;2023-02-18T06:49:41;76139.38;;;-144.65;93.59
5146;BME280;2591;48.144;15.152;2023-02-18T06:52:08;76141.41;;;-144.65;93.22
5146;BME280;2591;48.144;15.152;2023-02-18T06:54:36;76141.41;;;-144.65;93.90
5146;BME280;2591;48.144;15.152;2023-02-18T06:57:04;76127.16;;;-144.65;92.85
5146;BME280;2591;48.144;15.152;2023-02-18T06:59:32;76131.22;;;-144.65;93.33
5146;BME280;2591;48.144;15.152;2023-02-18T07:02:00;76135.31;;;-144.65;93.21
5146;BME280;2591;48.144;15.152;2023-02-18T07:04:29;76141.41;;;-144.65;93.57
5146;BME280;2591;48.144;15.152;2023-02-18T07:06:57;76143.47;;;-144.65;93.33
5146;BME280;2591;48.144;15.152;2023-02-18T07:09:25;76147.53;;;-144.65;93.60
5146;BME280;2591;48.144;15.152;2023-02-18T07:11:53;76155.69;;;-144.65;94.10
5146;BME280;2591;48.144;15.152;2023-02-18T07:14:20;76143.47;;;-144.65;94.47
5146;BME280;2591;48.144;15.152;2023-02-18T07:16:49;76153.66;;;-144.65;95.14
5146;BME280;2591;48.144;15.152;2023-02-18T07:19:17;76157.72;;;-144.65;94.95
5146;BME280;2591;48.144;15.152;2023-02-18T07:21:46;76151.63;;;-144.65;95.17
5146;BME280;2591;48.144;15.152;2023-02-18T07:24:14;76149.56;;;-144.65;95.33
5146;BME280;2591;48.144;15.152;2023-02-18T07:26:42;76161.81;;;-144.65;96.02
5146;BME280;2591;48.144;15.152;2023-02-18T07:29:10;76157.72;;;-144.65;96.54
5146;BME280;2591;48.144;15.152;2023-02-18T07:31:37;76157.72;;;-144.65;96.78
5146;BME280;2591;48.144;15.152;2023-02-18T07:34:05;76169.97;;;-144.65;96.98
5146;BME280;2591;48.144;15.152;2023-02-18T07:36:33;76172.00;;;-144.65;97.08
5146;BME280;2591;48.144;15.152;2023-02-18T07:39:02;76167.94;;;-144.65;97.55
5146;BME280;2591;48.144;15.152;2023-02-18T07:41:30;76159.78;;;-144.65;96.82
5146;BME280;2591;48.144;15.152;2023-02-18T07:43:58;76161.81;;;-144.65;96.85
5146;BME280;2591;48.144;15.152;2023-02-18T07:46:26;76151.63;;;-144.65;96.23
5146;BME280;2591;48.144;15.152;2023-02-18T07:48:55;76147.53;;;-144.65;95.61
5146;BME280;2591;48.144;15.152;2023-02-18T07:51:23;76153.66;;;-144.65;95.82
5146;BME280;2591;48.144;15.152;2023-02-18T07:53:50;76153.66;;;-144.65;96.53
5146;BME280;2591;48.144;15.152;2023-02-18T07:56:20;76165.88;;;-144.65;97.91
5146;BME280;2591;48.144;15.152;2023-02-18T07:58:47;76151.63;;;-144.65;98.17
5146;BME280;2591;48.144;15.152;2023-02-18T08:01:15;76143.47;;;-144.65;98.18
5146;BME280;2591;48.144;15.152;2023-02-18T08:03:45;76139.38;;;-144.65;97.75
5146;BME280;2591;48.144;15.152;2023-02-18T08:06:20;76139.38;;;-144.65;98.75
5146;BME280;2591;48.144;15.152;2023-02-18T08:08:49;76131.22;;;-144.65;99.79
5146;BME280;2591;48.144;15.152;2023-02-18T08:11:16;76147.53;;;-144.65;100.00
5146;BME280;2591;48.144;15.152;2023-02-18T08:13:47;76151.63;;;-144.65;100.00
5146;BME280;2591;48.144;15.152;2023-02-18T08:16:15;76155.69;;;-144.65;100.00
5146;BME280;2591;48.144;15.152;2023-02-18T08:18:43;76151.63;;;-144.65;100.00
5146;BME280;2591;48.144;15.152;2023-02-18T08:21:13;76147.53;;;-144.65;100.00
5146;BME280;2591;48.144;15.152;2023-02-18T08:23:41;76131.22;;;-144.65;100.00
5146;BME280;2591;48.144;15.152;2023-02-18T08:26:09;76135.31;;;-144.65;100.00
5146;BME280;2591;48.144;15.152;2023-02-18T08:28:37;76135.31;;;-144.65;100.00
5146;BME280;2591;48.144;15.152;2023-02-18T08:31:06;76143.47;;;-144.65;100.00
5146;BME280;2591;48.144;15.152;2023-02-18T08:33:34;76133.25;;;-144.65;100.00
5146;BME280;2591;48.144;15.152;2023-02-18T08:36:06;76133.25;;;-144.65;100.00
5146;BME280;2591;48.144;15.152;2023-02-18T08:38:37;76127.16;;;-144.65;100.00
5146;BME280;2591;48.144;15.152;2023-02-18T08:41:06;76131.22;;;-144.65;100.00
5146;BME280;2591;48.144;15.152;2023-02-18T08:43:35;76119.00;;;-144.65;100.00
5146;BME280;2591;48.144;15.152;2023-02-18T08:46:03;76102.69;;;-144.65;100.00
5146;BME280;2591;48.144;15.152;2023-02-18T08:48:32;76104.72;;;-144.65;100.00
5146;BME280;2591;48.144;15.152;2023-02-18T08:51:10;76098.59;;;-144.65;100.00
5146;BME280;2591;48.144;15.152;2023-02-18T08:53:39;76086.38;;;-144.65;100.00
5146;BME280;2591;48.144;15.152;2023-02-18T08:56:08;76076.19;;;-144.65;100.00
5146;BME280;2591;48.144;15.152;2023-02-18T08:58:36;76057.84;;;-144.65;100.00
5146;BME280;2591;48.144;15.152;2023-02-18T09:01:07;76057.84;;;-144.65;98.94
5146;BME280;2591;48.144;15.152;2023-02-18T09:03:38;76055.78;;;-144.65;97.92
5146;BME280;2591;48.144;15.152;2023-02-18T09:06:06;76045.59;;;-144.65;96.56
5146;BME280;2591;48.144;15.152;2023-02-18T09:08:35;76025.22;;;-144.65;94.34
5146;BME280;2591;48.144;15.152;2023-02-18T09:11:03;76029.28;;;-144.65;93.92
5146;BME280;2591;48.144;15.152;2023-02-18T09:13:32;76031.31;;;-144.65;93.48
5146;BME280;2591;48.144;15.152;2023-02-18T09:16:02;76029.28;;;-144.65;92.12
5146;BME280;2591;48.144;15.152;2023-02-18T09:18:30;76023.19;;;-144.65;90.75
5146;BME280;2591;48.144;15.152;2023-02-18T09:21:00;76017.06;;;-144.65;90.75
5146;BME280;2591;48.144;15.152;2023-02-18T09:23:29;75996.66;;;-144.65;89.20
5146;BME280;2591;48.144;15.152;2023-02-18T09:25:58;75996.66;;;-144.65;88.18
5146;BME280;2591;48.144;15.152;2023-02-18T09:28:26;76004.81;;;-144.65;88.10
5146;BME280;2591;48.144;15.152;2023-02-18T09:30:54;76000.75;;;-144.65;88.31
5146;BME280;2591;48.144;15.152;2023-02-18T09:33:22;76000.75;;;-144.65;86.86
5146;BME280;2591;48.144;15.152;2023-02-18T09:35:49;76000.75;;;-144.65;87.25
5146;BME280;2591;48.144;15.152;2023-02-18T09:38:19;76021.13;;;-144.65;88.41
5146;BME280;2591;48.144;15.152;2023-02-18T09:40:49;76017.06;;;-144.65;88.33
5146;BME280;2591;48.144;15.152;2023-02-18T09:43:23;76008.91;;;-144.65;87.37
5146;BME280;2591;48.144;15.152;2023-02-18T09:45:55;76004.81;;;-144.65;88.09
5146;BME280;2591;48.144;15.152;2023-02-18T09:48:26;76008.91;;;-144.65;88.57
5146;BME280;2591;48.144;15.152;2023-02-18T09:50:55;76004.81;;;-144.65;89.09
5146;BME280;2591;48.144;15.152;2023-02-18T09:53:24;76004.81;;;-144.65;88.87
5146;BME280;2591;48.144;15.152;2023-02-18T09:55:53;75996.66;;;-144.65;88.40
5146;BME280;2591;48.144;15.152;2023-02-18T09:58:24;75980.34;;;-144.65;87.28
5146;BME280;2591;48.144;15.152;2023-02-18T10:00:56;75976.28;;;-144.65;87.36
5146;BME280;2591;48.144;15.152;2023-02-18T10:03:29;75966.09;;;-144.65;86.61
5146;BME280;2591;48.144;15.152;2023-02-18T10:05:59;75947.75;;;-144.65;86.10
5146;BME280;2591;48.144;15.152;2023-02-18T10:08:34;75935.50;;;-144.65;85.43
5146;BME280;2591;48.144;15.152;2023-02-18T10:11:03;75927.34;;;-144.65;84.00
5146;BME280;2591;48.144;15.152;2023-02-18T10:13:33;75921.25;;;-144.65;82.45
5146;BME280;2591;48.144;15.152;2023-02-18T10:16:02;75909.00;;;-144.65;81.22
5146;BME280;2591;48.144;15.152;2023-02-18T10:18:33;75921.25;;;-144.65;81.21
5146;BME280;2591;48.144;15.152;2023-02-18T10:21:05;75915.13;;;-144.65;80.26
5146;BME280;2591;48.144;15.152;2023-02-18T10:23:37;75911.03;;;-144.65;79.99
5146;BME280;2591;48.144;15.152;2023-02-18T10:26:12;75915.13;;;-144.65;80.28
5146;BME280;2591;48.144;15.152;2023-02-18T10:28:42;75919.19;;;-144.65;80.02
5146;BME280;2591;48.144;15.152;2023-02-18T10:31:14;75921.25;;;-144.65;80.28
5146;BME280;2591;48.144;15.152;2023-02-18T10:33:46;75929.41;;;-144.65;81.35
5146;BME280;2591;48.144;15.152;2023-02-18T10:36:24;75927.34;;;-144.65;81.00
5146;BME280;2591;48.144;15.152;2023-02-18T10:39:12;75931.44;;;-144.65;81.01
5146;BME280;2591;48.144;15.152;2023-02-18T10:41:53;75935.50;;;-144.65;81.38
5146;BME280;2591;48.144;15.152;2023-02-18T10:44:28;75931.44;;;-144.65;81.03
5146;BME280;2591;48.144;15.152;2023-02-18T10:47:04;75927.34;;;-144.65;81.62
5146;BME280;2591;48.144;15.152;2023-02-18T10:49:55;75921.25;;;-144.65;80.97
5146;BME280;2591;48.144;15.152;2023-02-18T10:52:26;75915.13;;;-144.65;80.65
5146;BME280;2591;48.144;15.152;2023-02-18T10:55:02;75919.19;;;-144.65;81.13
5146;BME280;2591;48.144;15.152;2023-02-18T10:57:31;75878.44;;;-144.65;78.63
5146;BME280;2591;48.144;15.152;2023-02-18T11:00:03;75888.63;;;-144.65;78.77
5146;BME280;2591;48.144;15.152;2023-02-18T11:02:42;75882.50;;;-144.65;78.90
5146;BME280;2591;48.144;15.152;2023-02-18T11:05:25;75849.88;;;-144.65;77.65
5146;BME280;2591;48.144;15.152;2023-02-18T11:07:56;75860.06;;;-144.65;77.65
5146;BME280;2591;48.144;15.152;2023-02-18T11:10:28;75841.72;;;-144.65;76.75
5146;BME280;2591;48.144;15.152;2023-02-18T11:12:59;75833.56;;;-144.65;76.26
5146;BME280;2591;48.144;15.152;2023-02-18T11:15:29;75829.50;;;-144.65;76.14
5146;BME280;2591;48.144;15.152;2023-02-18T11:18:11;75813.19;;;-144.65;75.54
5146;BME280;2591;48.144;15.152;2023-02-18T11:20:40;75807.06;;;-144.65;75.29
5146;BME280;2591;48.144;15.152;2023-02-18T11:23:18;75786.69;;;-144.65;74.98
5146;BME280;2591;48.144;15.152;2023-02-18T11:25:57;75784.66;;;-144.65;75.33
5146;BME280;2591;48.144;15.152;2023-02-18T11:28:30;75776.50;;;-144.65;75.83
5146;BME280;2591;48.144;15.152;2023-02-18T11:31:01;75768.34;;;-144.65;76.02
5146;BME280;2591;48.144;15.152;2023-02-18T11:33:33;75760.19;;;-144.65;76.64
5146;BME280;2591;48.144;15.152;2023-02-18T11:36:17;75747.94;;;-144.65;76.17
5146;BME280;2591;48.144;15.152;2023-02-18T11:38:48;75750.00;;;-144.65;76.11
5146;BME280;2591;48.144;15.152;2023-02-18T11:41:21;75745.91;;;-144.65;75.73
5146;BME280;2591;48.144;15.152;2023-02-18T11:43:51;75723.50;;;-144.65;75.98
5146;BME280;2591;48.144;15.152;2023-02-18T11:46:20;75727.56;;;-144.65;75.59
5146;BME280;2591;48.144;15.152;2023-02-18T11:48:50;75733.69;;;-144.65;75.51
5146;BME280;2591;48.144;15.152;2023-02-18T11:51:19;75711.25;;;-144.65;75.24
5146;BME280;2591;48.144;15.152;2023-02-18T11:53:56;75694.94;;;-144.65;75.40
5146;BME280;2591;48.144;15.152;2023-02-18T11:56:28;75678.63;;;-144.65;74.53
5146;BME280;2591;48.144;15.152;2023-02-18T11:58:58;75650.09;;;-144.65;74.44
5146;BME280;2591;48.144;15.152;2023-02-18T12:01:30;75625.63;;;-144.65;72.89
5146;BME280;2591;48.144;15.152;2023-02-18T12:04:09;75609.34;;;-144.65;72.06
5146;BME280;2591;48.144;15.152;2023-02-18T12:06:44;75580.78;;;-144.65;71.70
5146;BME280;2591;48.144;15.152;2023-02-18T12:09:19;75570.59;;;-144.65;70.07
5146;BME280;2591;48.144;15.152;2023-02-18T12:11:52;75517.59;;;-144.65;66.91
5146;BME280;2591;48.144;15.152;2023-02-18T12:14:25;75507.41;;;-144.65;65.65
5146;BME280;2591;48.144;15.152;2023-02-18T12:20:03;75466.63;;;-144.65;63.65
5146;BME280;2591;48.144;15.152;2023-02-18T12:22:41;75472.75;;;-144.65;63.32
5146;BME280;2591;48.144;15.152;2023-02-18T12:25:22;75482.94;;;-144.65;63.65
5146;BME280;2591;48.144;15.152;2023-02-18T12:28:02;75487.03;;;-144.65;63.86
5146;BME280;2591;48.144;15.152;2023-02-18T12:30:52;75482.94;;;-144.65;63.90
5146;BME280;2591;48.144;15.152;2023-02-18T12:33:31;75476.84;;;-144.65;64.18
5146;BME280;2591;48.144;15.152;2023-02-18T12:36:11;75482.94;;;-144.65;63.99
5146;BME280;2591;48.144;15.152;2023-02-18T12:38:53;75474.78;;;-144.65;63.95
5146;BME280;2591;48.144;15.152;2023-02-18T12:41:33;75474.78;;;-144.65;64.27
5146;BME280;2591;48.144;15.152;2023-02-18T12:44:17;75456.44;;;-144.65;63.08
5146;BME280;2591;48.144;15.152;2023-02-18T12:47:02;75478.88;;;-144.65;63.20
5146;BME280;2591;48.144;15.152;2023-02-18T12:49:44;75482.94;;;-144.65;63.96
5146;BME280;2591;48.144;15.152;2023-02-18T12:52:24;75485.00;;;-144.65;63.81
5146;BME280;2591;48.144;15.152;2023-02-18T12:55:16;75464.59;;;-144.65;63.85
5146;BME280;2591;48.144;15.152;2023-02-18T12:57:54;75466.63;;;-144.65;64.16
5146;BME280;2591;48.144;15.152;2023-02-18T13:00:46;75423.84;;;-144.65;63.50
5146;BME280;2591;48.144;15.152;2023-02-18T13:03:30;75385.09;;;-144.65;63.08
5146;BME280;2591;48.144;15.152;2023-02-18T13:06:12;75338.22;;;-144.65;62.90
5146;BME280;2591;48.144;15.152;2023-02-18T13:08:51;75303.56;;;-144.65;61.80
5146;BME280;2591;48.144;15.152;2023-02-18T13:11:33;75293.38;;;-144.65;61.56
5146;BME280;2591;48.144;15.152;2023-02-18T13:14:08;75307.66;;;-144.65;61.67
5146;BME280;2591;48.144;15.152;2023-02-18T13:16:41;75283.19;;;-144.65;60.83
5146;BME280;2591;48.144;15.152;2023-02-18T13:19:17;75258.72;;;-144.65;60.86
5146;BME280;2591;48.144;15.152;2023-02-18T13:21:47;75254.66;;;-144.65;60.42
5146;BME280;2591;48.144;15.152;2023-02-18T13:24:24;75234.28;;;-144.65;60.31